Time;durP1;ratioP1;P1;durP2;ratioP2;P2;SDS_P1;SDS_P2;PMS_P1;PMS_P2;Temp;Humidity;BMP_temperature;BMP_pressure;BME280_temperature;BME280_humidity;BME280_pressure;Samples;Min_cycle;Max_cycle;Signal;HPM_P1;HPM_P2
2021/12/10 00:01:15;;;;;;;21.92;10.23;;;;;;;2.39;97.40;99811.81;15291942;19;20835;-58
2021/12/10 00:06:21;;;;;;;20.80;10.45;;;;;;;2.35;97.37;99809.94;15295011;19;20018;-57
2021/12/10 00:11:29;;;;;;;26.98;9.85;;;;;;;2.32;97.57;99805.53;15291321;19;20022;-59
2021/12/10 00:16:32;;;;;;;21.90;9.82;;;;;;;2.34;97.91;99800.41;15294574;19;20421;-59
2021/12/10 00:21:34;;;;;;;22.17;10.88;;;;;;;2.30;97.87;99795.16;15292200;19;20038;-59
2021/12/10 00:26:37;;;;;;;23.40;9.32;;;;;;;2.28;97.96;99783.00;15293222;19;20697;-59
2021/12/10 00:31:46;;;;;;;21.40;9.60;;;;;;;2.29;98.13;99779.59;15290031;19;20433;-60
2021/12/10 00:36:51;;;;;;;21.87;11.07;;;;;;;2.32;98.02;99782.28;15295167;19;20010;-59
2021/12/10 00:41:55;;;;;;;22.33;10.82;;;;;;;2.33;97.91;99776.31;15295130;19;20514;-59
2021/12/10 00:46:57;;;;;;;22.08;9.90;;;;;;;2.37;98.07;99778.16;15296246;19;20019;-60
2021/12/10 00:51:59;;;;;;;24.85;11.65;;;;;;;2.45;97.81;99781.00;15294443;19;20021;-59
2021/12/10 00:57:01;;;;;;;24.38;11.43;;;;;;;2.44;97.83;99774.06;15299281;19;20042;-58
2021/12/10 01:02:06;;;;;;;23.85;11.27;;;;;;;2.42;97.92;99766.28;15296898;19;20037;-58
2021/12/10 01:07:13;;;;;;;28.50;12.02;;;;;;;2.42;98.34;99755.06;15289741;19;20031;-58
2021/12/10 01:12:25;;;;;;;27.73;11.93;;;;;;;2.40;98.43;99755.03;15289571;19;20493;-58
2021/12/10 01:28:14;;;;;;;28.67;13.63;;;;;;;2.38;98.69;99732.53;15288676;19;20581;-59
2021/12/10 01:33:17;;;;;;;29.58;13.82;;;;;;;2.27;99.11;99727.00;15285556;19;20764;-59
2021/12/10 01:38:21;;;;;;;32.25;13.93;;;;;;;2.27;99.37;99729.59;15289412;19;20074;-58
2021/12/10 01:43:24;;;;;;;28.48;12.70;;;;;;;2.26;99.21;99715.78;15293944;19;20018;-59
2021/12/10 01:48:31;;;;;;;31.63;12.63;;;;;;;2.30;99.04;99719.38;15303892;19;20014;-59
2021/12/10 01:53:37;;;;;;;25.70;11.98;;;;;;;2.34;98.89;99722.91;15299056;19;20014;-60
2021/12/10 01:58:39;;;;;;;25.40;12.30;;;;;;;2.33;99.00;99721.16;15302227;19;20014;-58
2021/12/10 02:03:45;;;;;;;23.17;11.48;;;;;;;2.34;98.72;99722.91;15298797;19;20018;-60
2021/12/10 02:08:47;;;;;;;22.85;10.98;;;;;;;2.32;98.69;99717.69;15298588;19;20022;-59
2021/12/10 02:13:50;;;;;;;37.75;12.40;;;;;;;2.24;98.61;99701.09;15300129;19;20031;-59
2021/12/10 02:18:53;;;;;;;21.52;10.27;;;;;;;2.22;98.87;99689.81;15300960;19;20031;-59
2021/12/10 02:23:58;;;;;;;21.77;11.05;;;;;;;2.20;98.69;99687.16;15297341;19;20018;-59
2021/12/10 02:29:00;;;;;;;24.23;11.40;;;;;;;2.19;99.06;99688.03;15298534;19;20706;-59
2021/12/10 02:34:03;;;;;;;23.60;9.50;;;;;;;2.14;98.88;99663.72;15297868;19;20088;-59
2021/12/10 02:39:05;;;;;;;23.05;10.73;;;;;;;2.16;99.13;99659.47;15301340;19;20035;-59
2021/12/10 02:44:10;;;;;;;22.40;10.20;;;;;;;2.16;99.07;99656.91;15298609;19;20098;-59
2021/12/10 02:49:13;;;;;;;22.25;9.80;;;;;;;2.10;99.19;99649.84;15299534;19;20028;-59
2021/12/10 02:54:21;;;;;;;23.85;10.02;;;;;;;2.11;99.32;99645.56;15294531;19;20074;-59
2021/12/10 02:59:23;;;;;;;22.25;9.63;;;;;;;2.13;99.14;99643.88;15297917;19;20023;-59
2021/12/10 03:04:26;;;;;;;24.35;9.80;;;;;;;2.14;98.82;99634.44;15294879;19;20007;-59
2021/12/10 03:09:29;;;;;;;23.95;10.45;;;;;;;2.15;98.66;99629.34;15295741;19;20089;-59
2021/12/10 03:14:35;;;;;;;22.77;10.32;;;;;;;2.17;98.50;99619.91;15295523;19;20087;-59
2021/12/10 03:19:40;;;;;;;22.67;9.50;;;;;;;2.14;98.44;99619.81;15297548;19;20019;-59
2021/12/10 03:24:42;;;;;;;20.60;9.25;;;;;;;2.17;98.27;99608.72;15291970;19;20085;-59
2021/12/10 03:29:45;;;;;;;21.42;9.52;;;;;;;2.15;98.07;99612.94;15295215;19;20474;-59
2021/12/10 03:34:48;;;;;;;19.55;9.60;;;;;;;2.13;98.17;99605.16;15293913;19;20082;-59
2021/12/10 03:39:51;;;;;;;25.88;9.20;;;;;;;2.12;97.94;99590.50;15297680;19;20394;-59
2021/12/10 03:44:53;;;;;;;20.20;9.00;;;;;;;2.07;98.12;99584.28;15294419;19;20097;-59
2021/12/10 03:49:55;;;;;;;20.90;8.38;;;;;;;2.09;98.11;99585.25;15295170;19;20106;-60
2021/12/10 03:54:59;;;;;;;17.70;8.68;;;;;;;2.14;97.91;99582.78;15291210;19;20011;-59
2021/12/10 04:00:01;;;;;;;18.42;8.95;;;;;;;2.08;97.95;99578.31;15295254;19;20427;-59
2021/12/10 04:05:03;;;;;;;17.58;7.95;;;;;;;2.04;98.09;99584.19;15289575;19;20015;-59
2021/12/10 04:10:09;;;;;;;17.38;8.82;;;;;;;2.04;98.25;99582.50;15292029;19;20015;-59
2021/12/10 04:15:13;;;;;;;17.10;8.73;;;;;;;2.01;98.08;99571.19;15291643;19;20018;-59
2021/12/10 04:20:18;;;;;;;19.85;7.85;;;;;;;1.98;98.25;99558.19;15294491;19;20010;-58
2021/12/10 04:25:24;;;;;;;18.08;7.38;;;;;;;1.97;98.15;99553.84;15291117;19;20106;-59
2021/12/10 04:30:27;;;;;;;20.17;8.50;;;;;;;1.98;98.07;99550.44;15290686;19;20034;-59
2021/12/10 04:35:29;;;;;;;19.38;8.93;;;;;;;2.01;97.52;99551.44;15289721;19;20102;-59
2021/12/10 04:40:31;;;;;;;17.27;8.05;;;;;;;2.02;97.82;99552.28;15293796;19;20040;-60
2021/12/10 04:45:33;;;;;;;15.20;6.93;;;;;;;1.96;98.07;99555.56;15290717;19;20109;-58
2021/12/10 04:50:35;;;;;;;14.25;7.57;;;;;;;1.93;97.71;99547.72;15291550;19;20027;-59
2021/12/10 04:55:37;;;;;;;17.15;7.45;;;;;;;1.92;97.57;99546.84;15289577;19;20023;-60
2021/12/10 05:00:46;;;;;;;16.92;7.43;;;;;;;2.00;97.15;99543.59;15291668;19;20036;-59
2021/12/10 05:05:48;;;;;;;15.73;6.50;;;;;;;1.96;97.07;99536.63;15290864;19;20020;-59
2021/12/10 05:10:50;;;;;;;15.55;7.10;;;;;;;1.95;97.09;99530.56;15287903;19;20090;-59
2021/12/10 05:15:57;;;;;;;15.82;7.30;;;;;;;1.94;97.06;99521.94;15288991;19;20031;-58
2021/12/10 05:20:59;;;;;;;14.27;6.50;;;;;;;1.95;97.13;99525.38;15287314;19;20074;-59
2021/12/10 05:26:01;;;;;;;15.48;6.90;;;;;;;1.94;97.04;99537.44;15291092;19;20018;-57
2021/12/10 05:31:03;;;;;;;14.05;6.80;;;;;;;1.94;96.81;99527.09;15288022;19;20094;-57
2021/12/10 05:36:06;;;;;;;13.65;5.90;;;;;;;1.94;96.75;99521.06;15289220;19;20475;-60
2021/12/10 05:41:10;;;;;;;16.23;6.43;;;;;;;1.91;96.70;99523.56;15289072;19;20408;-59
2021/12/10 05:46:12;;;;;;;12.10;6.25;;;;;;;1.92;96.76;99521.03;15287518;19;20019;-59
2021/12/10 05:51:14;;;;;;;13.45;6.15;;;;;;;1.91;96.78;99519.25;15285665;19;20014;-59
2021/12/10 05:56:18;;;;;;;17.38;6.85;;;;;;;1.90;96.90;99517.50;15288379;19;20077;-59
2021/12/10 06:01:20;;;;;;;18.27;6.53;;;;;;;1.92;96.58;99520.13;15287468;19;20011;-59
2021/12/10 06:06:26;;;;;;;15.68;6.50;;;;;;;1.97;96.37;99515.09;15288223;19;20038;-59
2021/12/10 06:11:28;;;;;;;15.95;7.13;;;;;;;1.91;96.99;99498.63;15283594;19;20472;-59
2021/12/10 06:16:29;;;;;;;15.65;7.00;;;;;;;1.87;97.23;99493.31;15286377;19;20531;-59
2021/12/10 06:21:33;;;;;;;13.90;6.50;;;;;;;1.86;97.87;99489.88;15285937;19;20352;-59
2021/12/10 06:26:35;;;;;;;17.60;6.32;;;;;;;1.77;98.14;99493.03;15286956;19;20094;-59
2021/12/10 06:31:37;;;;;;;15.52;6.57;;;;;;;1.77;98.46;99495.59;15294451;19;20074;-59
2021/12/10 06:36:43;;;;;;;15.73;6.85;;;;;;;1.76;98.80;99492.97;15302783;19;20015;-57
2021/12/10 06:41:45;;;;;;;16.33;7.88;;;;;;;1.69;99.19;99480.69;15301671;19;20581;-58
2021/12/10 06:46:48;;;;;;;14.98;6.93;;;;;;;1.71;98.97;99479.03;15298791;19;20014;-58
2021/12/10 06:51:50;;;;;;;18.15;7.60;;;;;;;1.71;98.91;99479.03;15292947;19;20014;-58
2021/12/10 06:56:52;;;;;;;16.13;6.78;;;;;;;1.77;98.50;99471.47;15299330;19;20076;-59
2021/12/10 07:01:54;;;;;;;15.48;6.30;;;;;;;1.72;98.76;99470.47;15297429;19;20022;-58
2021/12/10 07:06:56;;;;;;;16.35;7.35;;;;;;;1.76;98.38;99465.44;15299761;19;20041;-58
2021/12/10 07:11:58;;;;;;;15.13;6.88;;;;;;;1.71;99.09;99455.81;15295607;19;20023;-59
2021/12/10 07:17:00;;;;;;;20.15;7.90;;;;;;;1.73;99.01;99459.34;15299590;19;20086;-58
2021/12/10 07:22:02;;;;;;;16.48;7.32;;;;;;;1.68;98.86;99453.13;15297276;19;20018;-59
2021/12/10 07:27:08;;;;;;;18.20;7.35;;;;;;;1.64;98.66;99448.72;15297941;19;20011;-58
2021/12/10 07:32:10;;;;;;;14.25;6.88;;;;;;;1.70;98.24;99447.19;15293807;19;20090;-57
2021/12/10 07:37:11;;;;;;;19.50;7.93;;;;;;;1.70;98.03;99456.66;15297641;19;20032;-58
2021/12/10 07:42:13;;;;;;;15.50;6.68;;;;;;;1.76;97.71;99452.53;15294841;19;20042;-58
2021/12/10 07:47:16;;;;;;;14.68;6.30;;;;;;;1.77;97.48;99444.00;15295983;19;20018;-57
2021/12/10 07:52:24;;;;;;;20.83;9.23;;;;;;;1.74;97.38;99443.00;15293155;19;20010;-58
2021/12/10 07:57:27;;;;;;;18.63;8.00;;;;;;;1.68;97.44;99437.66;15294793;19;20014;-58
2021/12/10 08:02:29;;;;;;;20.77;7.60;;;;;;;1.64;97.63;99446.16;15293158;19;20015;-58
2021/12/10 08:07:31;;;;;;;22.55;8.30;;;;;;;1.61;97.40;99446.03;15293897;19;20458;-59
2021/12/10 08:12:33;;;;;;;25.60;8.80;;;;;;;1.63;97.35;99445.25;15292211;19;20081;-57
2021/12/10 08:17:35;;;;;;;15.88;7.13;;;;;;;1.70;97.35;99443.75;15294673;19;20101;-58
2021/12/10 08:22:37;;;;;;;16.08;6.72;;;;;;;1.71;97.26;99442.91;15293525;19;20015;-58
2021/12/10 08:27:38;;;;;;;20.58;8.57;;;;;;;1.63;97.52;99445.25;15293708;19;20471;-57
2021/12/10 08:32:42;;;;;;;18.55;7.80;;;;;;;1.61;97.77;99434.00;15283491;19;20086;-57
2021/12/10 08:37:43;;;;;;;15.73;6.97;;;;;;;1.59;97.60;99435.66;15284616;19;20537;-57
2021/12/10 08:42:45;;;;;;;16.42;7.53;;;;;;;1.66;97.28;99434.16;15287307;19;20015;-57
2021/12/10 08:47:49;;;;;;;20.42;7.28;;;;;;;1.68;97.22;99435.06;15289036;19;20716;-57
2021/12/10 08:52:54;;;;;;;14.65;7.28;;;;;;;1.69;97.23;99434.25;15288403;19;20042;-58
2021/12/10 08:57:56;;;;;;;22.00;7.47;;;;;;;1.76;96.97;99436.19;15291398;19;20015;-59
2021/12/10 09:02:58;;;;;;;15.32;6.90;;;;;;;1.76;96.62;99441.34;15289761;19;20433;-59
2021/12/10 09:08:00;;;;;;;17.35;7.22;;;;;;;1.82;96.29;99443.22;15290072;19;20402;-58
2021/12/10 09:13:05;;;;;;;15.70;6.82;;;;;;;1.79;96.28;99432.81;15287064;19;20014;-59
2021/12/10 09:18:08;;;;;;;15.90;6.95;;;;;;;1.89;96.14;99442.59;15290059;19;20029;-58
2021/12/10 09:23:13;;;;;;;13.23;6.47;;;;;;;1.85;96.09;99436.47;15286748;19;20495;-59
2021/12/10 09:28:15;;;;;;;15.88;6.22;;;;;;;1.95;95.43;99437.59;15289996;19;20042;-58
2021/12/10 09:33:17;;;;;;;13.98;6.38;;;;;;;2.06;95.17;99431.06;15289558;19;20086;-59
2021/12/10 09:38:20;;;;;;;13.02;6.13;;;;;;;2.15;94.49;99435.63;15290789;19;20082;-59
2021/12/10 09:43:23;;;;;;;15.95;7.18;;;;;;;2.34;94.08;99437.03;15287126;19;20010;-58
2021/12/10 09:48:25;;;;;;;15.38;7.28;;;;;;;2.56;92.45;99443.69;15286661;19;20453;-59
2021/12/10 09:53:29;;;;;;;12.95;5.72;;;;;;;2.88;92.57;99437.63;15285149;19;20082;-59
2021/12/10 09:58:31;;;;;;;11.95;5.70;;;;;;;2.79;91.67;99440.84;15287359;19;20074;-59
2021/12/10 10:03:37;;;;;;;12.52;6.05;;;;;;;2.92;91.30;99440.34;15287412;19;20057;-58
2021/12/10 10:08:41;;;;;;;18.90;5.65;;;;;;;2.96;90.99;99439.59;15301847;19;20023;-58
2021/12/10 10:13:53;;;;;;;15.52;6.60;;;;;;;3.17;91.15;99440.97;15300776;19;20018;-59
2021/12/10 10:18:57;;;;;;;14.25;6.35;;;;;;;3.21;89.00;99445.38;15301915;19;20023;-59
2021/12/10 10:24:00;;;;;;;16.73;5.50;;;;;;;3.09;88.78;99432.13;15299313;19;20010;-59
2021/12/10 10:29:12;;;;;;;13.82;4.57;;;;;;;3.21;88.21;99423.81;15301890;19;20718;-58
2021/12/10 10:34:14;;;;;;;14.25;5.03;;;;;;;3.43;88.40;99428.69;15297985;19;20066;-57
2021/12/10 10:39:24;;;;;;;10.20;4.38;;;;;;;3.49;87.36;99425.38;15300712;19;20018;-59
2021/12/10 10:44:26;;;;;;;13.27;4.82;;;;;;;3.42;85.66;99423.47;15295112;19;20031;-56
2021/12/10 10:49:40;;;;;;;13.88;4.80;;;;;;;3.51;86.14;99410.72;15297721;19;20511;-59
2021/12/10 10:54:43;;;;;;;11.25;4.75;;;;;;;3.51;85.60;99409.03;15294896;19;20015;-59
2021/12/10 10:59:49;;;;;;;10.57;4.80;;;;;;;3.76;86.21;99408.72;15298458;19;20023;-59
2021/12/10 11:04:52;;;;;;;11.65;5.03;;;;;;;3.70;85.99;99406.88;15295662;19;20039;-58
2021/12/10 11:09:59;;;;;;;12.52;4.90;;;;;;;3.65;86.46;99406.75;15297480;19;20021;-60
2021/12/10 11:15:06;;;;;;;9.88;4.15;;;;;;;3.61;85.58;99404.94;15291936;19;20015;-59
2021/12/10 11:20:16;;;;;;;11.07;4.35;;;;;;;3.75;85.07;99418.19;15298078;19;20439;-58
2021/12/10 11:25:25;;;;;;;9.32;4.65;;;;;;;3.58;84.35;99412.63;15293843;19;20010;-58
2021/12/10 11:30:27;;;;;;;12.90;4.70;;;;;;;3.66;85.83;99408.53;15298501;19;20022;-59
2021/12/10 11:35:37;;;;;;;9.70;4.60;;;;;;;3.66;85.55;99408.53;15294894;19;20175;-59
2021/12/10 11:40:41;;;;;;;9.27;3.97;;;;;;;3.69;85.02;99403.41;15296821;19;20022;-59
2021/12/10 11:45:52;;;;;;;13.60;4.18;;;;;;;3.79;84.80;99395.84;15292659;19;20019;-58
2021/12/10 11:51:12;;;;;;;12.40;4.63;;;;;;;3.68;83.18;99396.47;15293007;19;20037;-59
2021/12/10 11:56:21;;;;;;;11.75;4.20;;;;;;;3.71;84.82;99401.72;15295639;19;20022;-59
2021/12/10 12:01:23;;;;;;;12.18;4.90;;;;;;;3.81;85.41;99399.34;15295383;19;20488;-59
2021/12/10 12:06:25;;;;;;;12.90;5.20;;;;;;;3.87;86.18;99396.88;15294672;19;20569;-59
2021/12/10 12:11:28;;;;;;;15.15;5.53;;;;;;;3.89;86.37;99392.63;15292033;19;20022;-59
2021/12/10 12:16:30;;;;;;;13.85;5.55;;;;;;;3.91;85.44;99388.34;15295033;19;20035;-60
2021/12/10 12:26:41;;;;;;;13.07;5.55;;;;;;;3.82;85.64;99390.72;15294641;19;20018;-59
2021/12/10 12:32:12;;;;;;;10.73;4.90;;;;;;;3.62;85.18;99395.44;15293193;19;20026;-58
2021/12/10 12:37:16;;;;;;;10.52;4.22;;;;;;;3.62;85.81;99405.81;15293087;19;20117;-59
2021/12/10 12:42:45;;;;;;;12.70;5.07;;;;;;;3.42;86.08;99406.22;15290559;19;20050;-58
2021/12/10 12:47:50;;;;;;;10.60;4.43;;;;;;;3.29;85.69;99406.78;15291726;19;20101;-59
2021/12/10 12:53:17;;;;;;;12.10;4.80;;;;;;;3.21;86.44;99411.75;15287721;19;20014;-59
2021/12/10 12:58:24;;;;;;;12.02;4.20;;;;;;;3.15;86.50;99416.78;15291527;19;20015;-58
2021/12/10 13:04:04;;;;;;;9.98;4.07;;;;;;;3.19;87.29;99413.44;15288221;19;20018;-58
2021/12/10 13:09:36;;;;;;;10.93;4.63;;;;;;;3.23;86.86;99417.84;15288257;19;20082;-58
2021/12/10 13:14:54;;;;;;;11.93;4.75;;;;;;;3.25;86.89;99421.34;15288003;19;20097;-58
2021/12/10 13:19:56;;;;;;;15.13;6.10;;;;;;;3.30;87.57;99422.34;15291659;19;20400;-58
2021/12/10 13:25:03;;;;;;;21.77;7.20;;;;;;;3.28;88.00;99426.59;15287571;19;20962;-59
2021/12/10 13:30:08;;;;;;;24.83;6.82;;;;;;;3.19;87.71;99431.53;15291070;19;20031;-58
2021/12/10 13:35:12;;;;;;;25.73;9.32;;;;;;;3.15;87.70;99440.03;15286017;19;20021;-59
2021/12/10 13:40:15;;;;;;;17.63;6.50;;;;;;;3.16;87.31;99452.16;15289268;19;20031;-59
2021/12/10 13:45:20;;;;;;;10.15;5.13;;;;;;;3.13;87.53;99436.56;15286432;19;20424;-59
2021/12/10 13:50:25;;;;;;;17.52;5.93;;;;;;;3.21;87.52;99442.78;15286874;19;20142;-60
2021/12/10 13:56:04;;;;;;;14.43;5.88;;;;;;;3.21;87.54;99445.38;15285028;19;20098;-59
2021/12/10 14:01:11;;;;;;;14.50;6.22;;;;;;;3.15;88.07;99446.13;15283136;19;20089;-59
2021/12/10 14:06:38;;;;;;;14.85;6.65;;;;;;;3.14;87.63;99465.06;15288716;19;20458;-59
2021/12/10 14:11:55;;;;;;;14.52;5.32;;;;;;;3.07;88.32;99457.97;15283322;19;20078;-58
2021/12/10 14:17:04;;;;;;;15.90;6.45;;;;;;;3.10;87.85;99465.81;15286366;19;20019;-58
2021/12/10 14:22:57;;;;;;;14.10;5.10;;;;;;;3.01;87.86;99478.50;15286588;19;20026;-59
2021/12/10 14:28:45;;;;;;;17.08;6.13;;;;;;;2.78;87.74;99480.47;15287659;19;20025;-60
2021/12/10 14:34:14;;;;;;;12.50;4.78;;;;;;;2.68;88.24;99491.38;15285147;19;20458;-59
2021/12/10 14:39:16;;;;;;;19.25;6.03;;;;;;;2.58;88.72;99503.16;15284303;19;20367;-59
2021/12/10 14:44:40;;;;;;;17.08;4.63;;;;;;;2.46;88.99;99495.94;15282269;19;20017;-59
2021/12/10 14:49:44;;;;;;;14.50;5.75;;;;;;;2.36;89.04;99505.13;15286675;19;20495;-59
2021/12/10 14:55:09;;;;;;;11.75;4.95;;;;;;;2.30;89.65;99521.31;15295843;19;20017;-60
2021/12/10 15:00:41;;;;;;;12.68;4.82;;;;;;;2.30;89.38;99523.91;15298525;19;20679;-60
2021/12/10 15:06:07;;;;;;;8.05;3.83;;;;;;;2.25;89.76;99530.66;15299991;19;20011;-60
2021/12/10 15:11:40;;;;;;;10.23;3.88;;;;;;;2.27;89.37;99528.13;15296169;19;20014;-59
2021/12/10 15:17:15;;;;;;;13.63;5.63;;;;;;;2.21;89.84;99531.38;15297625;19;20018;-58
2021/12/10 15:22:30;;;;;;;11.85;4.05;;;;;;;2.16;90.02;99539.81;15296984;19;20379;-60
2021/12/10 15:27:36;;;;;;;14.48;6.53;;;;;;;2.12;90.26;99549.19;15299652;19;20017;-59
2021/12/10 15:32:47;;;;;;;18.17;6.22;;;;;;;2.10;90.93;99546.56;15294094;19;20345;-60
2021/12/10 15:37:53;;;;;;;12.85;5.47;;;;;;;2.16;90.71;99552.72;15296594;19;20580;-60
2021/12/10 15:43:00;;;;;;;15.13;6.35;;;;;;;2.14;90.46;99562.13;15295924;19;20018;-60
2021/12/10 15:48:08;;;;;;;11.88;4.40;;;;;;;2.08;90.48;99562.81;15297301;19;20095;-57
2021/12/10 15:53:18;;;;;;;32.20;9.48;;;;;;;2.11;91.15;99573.25;15293106;19;20031;-57
2021/12/10 15:58:24;;;;;;;17.58;6.07;;;;;;;2.11;91.50;99581.00;15295577;19;20014;-58
2021/12/10 16:03:27;;;;;;;51.30;14.90;;;;;;;2.08;92.16;99594.66;15291345;19;20018;-57
2021/12/10 16:08:37;;;;;;;21.98;6.65;;;;;;;2.09;93.08;99601.59;15294270;19;20011;-59
2021/12/10 16:13:41;;;;;;;;;;;;;;;2.08;93.36;99594.66;15292245;19;20090;-57
2021/12/10 16:18:48;;;;;;;18.15;7.40;;;;;;;2.09;93.87;99600.72;15294050;19;19925;-57
2021/12/10 16:23:58;;;;;;;18.08;7.05;;;;;;;2.09;93.74;99623.97;15293107;19;20018;-59
2021/12/10 16:29:03;;;;;;;;;;;;;;;2.10;93.62;99615.38;15295415;19;20015;-58
2021/12/10 16:34:11;;;;;;;32.20;12.60;;;;;;;2.12;93.41;99632.69;15290629;19;19922;-58
2021/12/10 16:39:16;;;;;;;23.70;9.82;;;;;;;2.09;93.00;99632.59;15291995;19;20487;-59
2021/12/10 16:44:19;;;;;;;23.48;10.27;;;;;;;2.17;92.78;99644.88;15288714;19;20111;-59
2021/12/10 16:49:24;;;;;;;26.38;12.27;;;;;;;2.16;92.57;99654.31;15291213;19;20032;-57
2021/12/10 16:54:35;;;;;;;15.63;6.93;;;;;;;2.15;92.34;99656.84;15290907;19;20382;-59
2021/12/10 16:59:39;;;;;;;15.23;5.75;;;;;;;2.17;92.35;99670.72;15291932;19;20021;-57
2021/12/10 17:04:46;;;;;;;28.40;9.80;;;;;;;2.22;91.68;99675.19;15283738;19;20074;-59
2021/12/10 17:09:52;;;;;;;15.45;6.38;;;;;;;2.16;91.89;99682.72;15287388;19;20031;-59
2021/12/10 17:15:03;;;;;;;14.88;6.53;;;;;;;2.22;91.67;99692.38;15286798;19;20506;-58
2021/12/10 17:20:34;;;;;;;19.60;9.85;;;;;;;2.26;91.32;99700.28;15288662;19;20010;-59
2021/12/10 17:25:41;;;;;;;23.60;11.00;;;;;;;2.22;91.61;99710.47;15287808;19;20093;-59
2021/12/10 17:30:49;;;;;;;21.15;8.55;;;;;;;2.29;91.40;99715.88;15287883;19;20014;-58
2021/12/10 17:35:55;;;;;;;19.85;9.80;;;;;;;2.24;91.28;99720.03;15289272;19;20385;-59
2021/12/10 17:41:05;;;;;;;25.05;11.82;;;;;;;2.20;91.71;99732.78;15288174;19;20036;-58
2021/12/10 17:46:14;;;;;;;;;;;;;;;2.21;91.51;99743.19;15289539;19;20361;-58
2021/12/10 17:51:20;;;;;;;18.48;7.03;;;;;;;2.25;90.89;99751.91;15284459;19;19936;-58
2021/12/10 17:56:23;;;;;;;20.73;8.23;;;;;;;2.22;91.12;99752.69;15286818;19;20035;-58
2021/12/10 18:01:36;;;;;;;45.65;13.73;;;;;;;2.26;90.58;99769.16;15285710;19;20015;-58
2021/12/10 18:06:42;;;;;;;27.60;10.85;;;;;;;2.20;90.69;99769.81;15284406;19;20015;-56
2021/12/10 18:11:48;;;;;;;30.90;11.10;;;;;;;2.24;90.84;99766.53;15285831;19;20357;-58
2021/12/10 18:16:50;;;;;;;26.73;10.43;;;;;;;2.25;90.59;99773.47;15286634;19;20014;-59
2021/12/10 18:21:58;;;;;;;45.00;15.15;;;;;;;2.19;90.62;99783.59;15284482;19;20518;-56
2021/12/10 18:27:03;;;;;;;24.90;11.15;;;;;;;2.16;90.96;99793.78;15293309;19;20014;-57
2021/12/10 18:32:16;;;;;;;33.85;11.82;;;;;;;2.18;90.94;99794.72;15297648;19;20018;-58
2021/12/10 18:37:25;;;;;;;80.07;22.83;;;;;;;2.16;90.86;99801.53;15299724;19;20031;-58
2021/12/10 18:42:31;;;;;;;26.73;10.75;;;;;;;2.12;91.18;99804.84;15297470;19;20429;-58
2021/12/10 18:47:35;;;;;;;44.75;15.90;;;;;;;2.15;90.91;99812.72;15298679;19;20535;-56
2021/12/10 18:52:37;;;;;;;30.83;12.60;;;;;;;2.14;90.92;99821.28;15297131;19;20015;-56
2021/12/10 18:57:46;;;;;;;26.25;9.30;;;;;;;2.11;91.06;99828.91;15297588;19;20014;-58
2021/12/10 19:02:53;;;;;;;26.25;10.80;;;;;;;2.09;91.22;99839.19;15298289;19;20031;-58
2021/12/10 19:07:58;;;;;;;29.58;11.98;;;;;;;2.10;91.13;99851.28;15297762;19;20010;-59
2021/12/10 19:13:04;;;;;;;32.70;15.80;;;;;;;2.07;91.13;99863.19;15296108;19;20471;-56
2021/12/10 19:18:17;;;;;;;26.45;12.73;;;;;;;2.06;91.46;99874.38;15296685;19;20018;-58
2021/12/10 19:23:25;;;;;;;15.15;6.85;;;;;;;2.07;91.22;99889.00;15297193;19;20018;-58
2021/12/10 19:28:32;;;;;;;17.08;7.03;;;;;;;2.02;91.00;99893.16;15286707;19;20090;-59
2021/12/10 19:33:57;;;;;;;13.05;6.82;;;;;;;2.01;91.14;99897.44;15289952;19;20022;-56
2021/12/10 19:39:11;;;;;;;14.05;6.63;;;;;;;1.99;91.16;99914.56;15287785;19;20031;-58
2021/12/10 19:44:16;;;;;;;19.55;8.43;;;;;;;1.98;91.26;99919.66;15288406;19;20015;-59
2021/12/10 19:49:27;;;;;;;25.90;10.82;;;;;;;1.99;91.34;99926.59;15290675;19;20019;-58
2021/12/10 19:54:34;;;;;;;17.98;8.43;;;;;;;1.97;91.70;99946.31;15287662;19;20092;-59
2021/12/10 19:59:47;;;;;;;14.82;7.40;;;;;;;1.97;91.54;99946.31;15292125;19;20011;-58
2021/12/10 20:04:59;;;;;;;22.08;9.52;;;;;;;1.96;91.46;99954.88;15290582;19;20336;-58
2021/12/10 20:10:09;;;;;;;24.17;9.85;;;;;;;1.97;91.21;99954.03;15293603;19;20495;-58
2021/12/10 20:15:11;;;;;;;;;;;;;;;1.94;91.61;99955.69;15288129;19;20085;-57
2021/12/10 20:20:39;;;;;;;18.08;7.80;;;;;;;1.92;91.50;99964.19;15290464;19;20010;-58
2021/12/10 20:25:53;;;;;;;21.40;9.45;;;;;;;1.87;92.00;99966.59;15290117;19;22206;-59
2021/12/10 20:31:04;;;;;;;17.40;8.63;;;;;;;1.85;92.17;99981.16;15290648;19;20082;-59
2021/12/10 20:36:11;;;;;;;19.67;8.18;;;;;;;1.79;92.52;99991.25;15291330;19;20021;-59
2021/12/10 20:41:34;;;;;;;29.45;11.13;;;;;;;1.80;92.52;100005.03;15290150;19;20082;-58
2021/12/10 20:46:39;;;;;;;21.88;8.88;;;;;;;1.79;92.56;100009.31;15289599;19;20027;-59
2021/12/10 20:52:05;;;;;;;19.05;8.30;;;;;;;1.77;92.73;100013.53;15289598;19;20101;-59
2021/12/10 20:57:19;;;;;;;23.02;9.98;;;;;;;1.75;93.01;100023.78;15288796;19;20023;-59
2021/12/10 21:02:46;;;;;;;23.55;10.02;;;;;;;1.75;92.83;100028.09;15289497;19;20022;-59
2021/12/10 21:07:51;;;;;;;24.60;9.93;;;;;;;1.74;92.99;100031.47;15287044;19;20018;-59
2021/12/10 21:12:54;;;;;;;26.35;9.98;;;;;;;1.74;93.19;100031.47;15289109;19;20026;-59
2021/12/10 21:18:12;;;;;;;21.63;8.55;;;;;;;1.71;93.68;100028.78;15285251;19;20018;-59
2021/12/10 21:23:20;;;;;;;15.85;7.03;;;;;;;1.64;93.92;100040.56;15288102;19;20086;-58
2021/12/10 21:28:26;;;;;;;17.67;7.22;;;;;;;1.64;94.14;100050.88;15285310;19;20018;-57
2021/12/10 21:33:43;;;;;;;19.30;8.63;;;;;;;1.59;94.25;100053.28;15286943;19;20014;-58
2021/12/10 21:38:49;;;;;;;19.15;7.68;;;;;;;1.57;94.69;100067.78;15286356;19;20354;-57
2021/12/10 21:43:56;;;;;;;20.55;8.38;;;;;;;1.61;94.88;100079.16;15286965;19;20018;-58
2021/12/10 21:49:00;;;;;;;19.05;8.90;;;;;;;1.63;94.56;100081.78;15287869;19;20024;-59
2021/12/10 21:54:06;;;;;;;21.17;9.25;;;;;;;1.61;94.73;100092.03;15286493;19;20074;-58
2021/12/10 21:59:13;;;;;;;16.30;7.43;;;;;;;1.61;94.66;100098.88;15286857;19;20014;-59
2021/12/10 22:04:20;;;;;;;18.25;7.97;;;;;;;1.61;94.45;100111.78;15299309;19;20010;-59
2021/12/10 22:09:36;;;;;;;18.25;7.22;;;;;;;1.61;94.54;100116.94;15302727;19;20780;-59
2021/12/10 22:14:45;;;;;;;19.05;7.32;;;;;;;1.54;95.10;100126.16;15298362;19;20085;-59
2021/12/10 22:19:52;;;;;;;24.85;9.43;;;;;;;1.53;95.22;100143.34;15304750;19;20496;-59
2021/12/10 22:24:58;;;;;;;19.40;7.68;;;;;;;1.49;95.21;100154.34;15296997;19;20090;-58
2021/12/10 22:30:07;;;;;;;18.60;6.13;;;;;;;1.49;95.62;100164.66;15302379;19;20014;-58
2021/12/10 22:35:44;;;;;;;17.85;7.50;;;;;;;1.44;95.61;100176.44;15297371;19;20031;-59
2021/12/10 22:40:52;;;;;;;15.93;7.18;;;;;;;1.43;95.72;100190.19;15298990;19;20018;-59
2021/12/10 22:46:01;;;;;;;22.30;9.43;;;;;;;1.39;95.83;100203.75;15301009;19;20010;-59
2021/12/10 22:51:13;;;;;;;19.93;8.87;;;;;;;1.42;95.71;100211.63;15299317;19;20014;-57
2021/12/10 22:56:19;;;;;;;17.02;7.20;;;;;;;1.40;95.70;100214.16;15300305;19;20546;-58
2021/12/10 23:01:30;;;;;;;17.63;7.30;;;;;;;1.38;95.84;100220.03;15298075;19;20011;-58
2021/12/10 23:06:33;;;;;;;17.15;7.53;;;;;;;1.34;96.30;100226.78;15300517;19;20014;-59
2021/12/10 23:11:36;;;;;;;18.48;7.93;;;;;;;1.31;96.52;100230.94;15297817;19;20035;-58
2021/12/10 23:16:52;;;;;;;21.05;7.63;;;;;;;1.31;96.55;100241.25;15297180;19;20074;-58
2021/12/10 23:21:54;;;;;;;18.58;7.78;;;;;;;1.33;96.66;100255.09;15297274;19;20018;-57
2021/12/10 23:27:03;;;;;;;19.65;8.35;;;;;;;1.30;96.77;100260.09;15299665;19;20085;-57
2021/12/10 23:32:09;;;;;;;26.25;8.93;;;;;;;1.32;96.75;100284.25;15296931;19;20050;-56
2021/12/10 23:37:11;;;;;;;20.50;8.73;;;;;;;1.33;96.46;100288.63;15297448;19;20022;-58
2021/12/10 23:42:23;;;;;;;18.13;7.30;;;;;;;1.31;96.65;100301.44;15295082;19;20014;-58
2021/12/10 23:47:29;;;;;;;22.27;9.45;;;;;;;1.28;96.86;100309.03;15296047;19;20091;-57
2021/12/10 23:52:35;;;;;;;23.77;8.10;;;;;;;1.27;97.04;100327.03;15294577;19;20031;-58
2021/12/10 23:57:40;;;;;;;21.35;8.00;;;;;;;1.30;96.87;100327.19;15297324;19;20081;-59
